createdAt,value
2023-03-06T00:00:07.452Z,2.13
2023-03-06T00:02:33.778Z,2.78
2023-03-06T00:05:00.144Z,1.23
2023-03-06T00:07:26.466Z,1.35
2023-03-06T00:09:52.870Z,0.55
2023-03-06T00:12:19.271Z,1.23
2023-03-06T00:14:45.732Z,1.35
2023-03-06T00:17:12.096Z,1.42
2023-03-06T00:19:38.486Z,1.48
2023-03-06T00:22:04.899Z,1.98
2023-03-06T00:24:31.266Z,2.07
2023-03-06T00:26:57.744Z,2.40
2023-03-06T00:29:24.155Z,1.15
2023-03-06T00:31:50.574Z,1.65
2023-03-06T00:34:17.065Z,1.90
2023-03-06T00:36:43.473Z,2.33
2023-03-06T00:39:09.846Z,1.33
2023-03-06T00:41:36.359Z,3.25
2023-03-06T00:44:02.728Z,1.27
2023-03-06T00:46:29.086Z,2.38
2023-03-06T00:48:55.537Z,2.13
2023-03-06T00:51:21.953Z,1.40
2023-03-06T00:53:48.539Z,1.80
2023-03-06T00:56:14.963Z,1.50
2023-03-06T00:58:41.687Z,3.83
2023-03-06T01:01:08.421Z,2.43
2023-03-06T01:03:34.880Z,1.95
2023-03-06T01:06:01.301Z,1.92
2023-03-06T01:08:27.742Z,2.28
2023-03-06T01:10:54.195Z,1.85
2023-03-06T01:13:21.788Z,2.37
2023-03-06T01:15:48.208Z,2.00
2023-03-06T01:18:15.303Z,1.85
2023-03-06T01:20:42.062Z,2.30
2023-03-06T01:23:08.490Z,2.33
2023-03-06T01:25:34.911Z,3.37
2023-03-06T01:28:01.391Z,3.78
2023-03-06T01:30:27.839Z,2.95
2023-03-06T01:32:54.230Z,4.85
2023-03-06T01:35:20.621Z,2.50
2023-03-06T01:37:47.053Z,2.70
2023-03-06T01:40:14.199Z,2.72
2023-03-06T01:42:41.695Z,3.00
2023-03-06T01:45:28.359Z,3.65
2023-03-06T01:47:54.757Z,3.90
2023-03-06T01:50:21.219Z,3.80
2023-03-06T01:52:58.585Z,3.22
2023-03-06T01:55:29.460Z,4.00
2023-03-06T01:58:00.608Z,6.18
2023-03-06T02:00:28.944Z,3.88
2023-03-06T02:03:13.066Z,4.13
2023-03-06T02:05:41.285Z,3.95
2023-03-06T02:08:09.584Z,4.50
2023-03-06T02:10:36.208Z,4.47
2023-03-06T02:13:03.219Z,5.07
2023-03-06T02:15:30.619Z,4.30
2023-03-06T02:17:57.141Z,6.22
2023-03-06T02:21:08.615Z,4.30
2023-03-06T02:24:01.798Z,5.10
2023-03-06T02:26:29.630Z,4.70
2023-03-06T02:28:58.391Z,8.53
2023-03-06T02:31:33.629Z,7.05
2023-03-06T02:34:16.590Z,5.40
2023-03-06T02:36:47.587Z,5.80
2023-03-06T02:39:15.472Z,5.97
2023-03-06T02:41:41.934Z,5.63
2023-03-06T02:44:08.414Z,6.07
2023-03-06T02:46:34.831Z,6.03
2023-03-06T02:49:01.294Z,6.22
2023-03-06T02:51:27.786Z,6.45
2023-03-06T02:53:54.270Z,6.40
2023-03-06T02:56:20.701Z,7.10
2023-03-06T02:58:47.415Z,8.75
2023-03-06T03:01:14.045Z,6.90
2023-03-06T03:03:40.625Z,6.85
2023-03-06T03:06:08.002Z,7.10
2023-03-06T03:08:34.968Z,7.32
2023-03-06T03:11:01.861Z,7.40
2023-03-06T03:13:28.197Z,11.30
2023-03-06T03:15:59.656Z,7.97
2023-03-06T03:18:26.071Z,6.90
2023-03-06T03:20:52.453Z,7.57
2023-03-06T03:23:18.853Z,7.32
2023-03-06T03:25:45.317Z,7.13
2023-03-06T03:28:11.733Z,8.00
2023-03-06T03:30:40.029Z,9.53
2023-03-06T03:33:06.499Z,7.45
2023-03-06T03:35:33.299Z,7.22
2023-03-06T03:38:00.096Z,6.88
2023-03-06T03:40:27.015Z,6.95
2023-03-06T03:42:53.486Z,6.87
2023-03-06T03:45:20.154Z,7.22
2023-03-06T03:47:46.751Z,6.70
2023-03-06T03:50:13.088Z,7.40
2023-03-06T03:52:39.530Z,7.05
2023-03-06T03:55:06.471Z,6.17
2023-03-06T03:57:32.876Z,8.32
2023-03-06T03:59:59.268Z,6.28
2023-03-06T04:02:25.669Z,5.82
2023-03-06T04:04:52.385Z,8.00
2023-03-06T04:07:18.864Z,5.87
2023-03-06T04:09:45.295Z,6.20
2023-03-06T04:12:11.685Z,7.90
2023-03-06T04:14:38.073Z,8.50
2023-03-06T04:17:04.503Z,6.18
2023-03-06T04:19:30.918Z,5.57
2023-03-06T04:21:57.356Z,6.82
2023-03-06T04:24:23.697Z,5.80
2023-03-06T04:26:50.218Z,6.32
2023-03-06T04:29:16.854Z,6.07
2023-03-06T04:31:43.274Z,5.60
2023-03-06T04:34:09.665Z,5.68
2023-03-06T04:36:36.533Z,6.00
2023-03-06T04:39:03.314Z,5.63
2023-03-06T04:41:30.575Z,6.35
2023-03-06T04:43:57.010Z,5.53
2023-03-06T04:46:23.496Z,6.22
2023-03-06T04:48:49.902Z,5.68
2023-03-06T04:51:16.586Z,5.03
2023-03-06T04:53:42.986Z,4.93
2023-03-06T04:56:09.617Z,6.03
2023-03-06T04:58:36.220Z,7.07
2023-03-06T05:01:03.611Z,7.60
2023-03-06T05:03:30.263Z,4.32
2023-03-06T05:05:56.640Z,3.95
2023-03-06T05:08:23.847Z,3.53
2023-03-06T05:10:56.412Z,3.25
2023-03-06T05:13:23.330Z,5.38
2023-03-06T05:15:49.782Z,3.40
2023-03-06T05:18:16.777Z,3.55
2023-03-06T05:20:43.653Z,3.33
2023-03-06T05:23:10.034Z,3.28
2023-03-06T05:25:39.241Z,3.10
2023-03-06T05:28:06.399Z,2.05
2023-03-06T05:30:32.889Z,3.65
2023-03-06T05:33:00.218Z,2.40
2023-03-06T05:35:26.582Z,2.20
2023-03-06T05:37:53.202Z,2.40
2023-03-06T05:40:19.904Z,2.75
2023-03-06T05:42:46.265Z,2.70
2023-03-06T05:45:12.728Z,1.93
2023-03-06T05:47:39.139Z,2.05
2023-03-06T05:50:07.957Z,2.38
2023-03-06T05:52:34.353Z,6.90
2023-03-06T05:55:00.695Z,1.80
2023-03-06T05:57:27.098Z,2.33
2023-03-06T05:59:53.746Z,2.42
2023-03-06T06:02:20.183Z,1.52
2023-03-06T06:04:46.939Z,2.10
2023-03-06T06:07:15.257Z,1.40
2023-03-06T06:09:43.372Z,2.43
2023-03-06T06:12:09.811Z,3.22
2023-03-06T06:14:36.175Z,6.22
2023-03-06T06:17:02.555Z,4.88
2023-03-06T06:19:30.486Z,2.75
2023-03-06T06:21:57.675Z,3.37
2023-03-06T06:24:26.034Z,2.10
2023-03-06T06:26:54.543Z,2.30
2023-03-06T06:29:22.121Z,2.35
2023-03-06T06:31:48.943Z,1.95
2023-03-06T06:34:15.431Z,3.23
2023-03-06T06:36:41.915Z,1.80
2023-03-06T06:39:10.720Z,0.70
2023-03-06T06:41:56.913Z,1.30
2023-03-06T06:44:23.509Z,1.13
2023-03-06T06:47:21.348Z,0.90
2023-03-06T06:49:37.387Z,1.98
2023-03-06T06:52:05.155Z,2.03
2023-03-06T06:54:33.376Z,0.75
2023-03-06T06:57:00.288Z,1.05
2023-03-06T06:59:26.858Z,1.00
2023-03-06T07:01:53.426Z,0.70
2023-03-06T07:04:20.119Z,0.70
2023-03-06T07:06:46.719Z,1.13
2023-03-06T07:09:13.736Z,2.83
2023-03-06T07:11:41.109Z,1.23
2023-03-06T07:14:08.119Z,2.17
2023-03-06T07:16:34.875Z,0.77
2023-03-06T07:19:01.302Z,0.90
2023-03-06T07:21:27.783Z,0.80
2023-03-06T07:23:57.181Z,1.17
2023-03-06T07:26:24.874Z,1.00
2023-03-06T07:28:53.585Z,0.65
2023-03-06T07:31:22.704Z,1.92
2023-03-06T07:33:53.329Z,5.68
2023-03-06T07:36:20.661Z,1.33
2023-03-06T07:38:47.404Z,0.70
2023-03-06T07:41:16.573Z,1.00
2023-03-06T07:43:44.326Z,1.05
2023-03-06T07:46:11.475Z,1.00
2023-03-06T07:48:38.323Z,0.70
2023-03-06T07:51:08.109Z,0.60
2023-03-06T07:53:35.001Z,2.15
2023-03-06T07:56:08.515Z,0.43
2023-03-06T07:58:40.087Z,0.40
2023-03-06T08:01:09.161Z,1.53
2023-03-06T08:03:35.887Z,3.22
2023-03-06T08:06:08.895Z,0.40
2023-03-06T08:08:37.322Z,0.95
2023-03-06T08:11:03.800Z,0.50
2023-03-06T08:13:30.187Z,0.60
2023-03-06T08:15:56.763Z,0.73
2023-03-06T08:18:23.347Z,0.77
2023-03-06T08:20:49.768Z,2.25
2023-03-06T08:23:16.202Z,2.03
2023-03-06T08:25:42.643Z,2.40
2023-03-06T08:28:09.014Z,0.73
2023-03-06T08:30:35.426Z,2.33
2023-03-06T08:33:02.083Z,0.30
2023-03-06T08:35:28.534Z,1.08
2023-03-06T08:37:55.156Z,2.53
2023-03-06T08:40:23.133Z,0.50
2023-03-06T08:42:49.611Z,0.35
2023-03-06T08:45:16.020Z,0.30
2023-03-06T08:47:42.358Z,1.08
2023-03-06T08:50:09.468Z,0.23
2023-03-06T08:52:35.857Z,0.77
2023-03-06T08:55:03.533Z,0.30
2023-03-06T08:57:30.518Z,2.38
2023-03-06T08:59:57.163Z,0.55
2023-03-06T09:02:23.542Z,0.83
2023-03-06T09:04:49.969Z,0.52
2023-03-06T09:07:16.360Z,0.52
2023-03-06T09:09:42.856Z,0.65
2023-03-06T09:12:09.209Z,0.20
2023-03-06T09:14:35.525Z,0.70
2023-03-06T09:17:01.920Z,0.30
2023-03-06T09:19:28.247Z,1.92
2023-03-06T09:21:54.646Z,0.30
2023-03-06T09:24:21.042Z,1.27
2023-03-06T09:26:49.356Z,0.30
2023-03-06T09:29:17.408Z,0.52
2023-03-06T09:31:44.930Z,2.42
2023-03-06T09:34:11.262Z,0.32
2023-03-06T09:36:53.434Z,1.95
2023-03-06T09:39:21.581Z,1.50
2023-03-06T09:41:49.528Z,0.30
2023-03-06T09:44:31.930Z,0.30
2023-03-06T09:47:20.874Z,0.40
2023-03-06T09:49:54.709Z,0.30
2023-03-06T09:52:33.211Z,0.30
2023-03-06T09:55:09.061Z,0.77
2023-03-06T09:57:38.090Z,0.30
2023-03-06T10:00:16.676Z,0.77
2023-03-06T10:02:53.267Z,1.65
2023-03-06T10:06:13.516Z,1.67
2023-03-06T10:09:01.492Z,1.58
2023-03-06T10:11:39.058Z,0.95
2023-03-06T10:14:27.781Z,0.38
2023-03-06T10:16:54.868Z,0.30
2023-03-06T10:19:21.990Z,1.67
2023-03-06T10:21:57.457Z,1.30
2023-03-06T10:24:40.862Z,1.02
2023-03-06T10:27:21.415Z,1.83
2023-03-06T10:30:03.621Z,4.70
2023-03-06T10:32:51.057Z,0.20
2023-03-06T10:35:44.202Z,0.63
2023-03-06T10:38:37.671Z,0.43
2023-03-06T10:41:08.538Z,0.80
2023-03-06T10:43:36.512Z,1.38
2023-03-06T10:46:03.840Z,2.63
2023-03-06T10:48:32.774Z,0.73
2023-03-06T10:51:31.446Z,0.63
2023-03-06T10:54:01.222Z,1.02
2023-03-06T10:56:41.634Z,0.45
2023-03-06T10:59:17.077Z,0.60
2023-03-06T11:01:52.346Z,0.50
2023-03-06T11:04:34.406Z,0.30
2023-03-06T11:07:06.905Z,0.30
2023-03-06T11:09:33.844Z,0.95
2023-03-06T11:12:22.497Z,0.87
2023-03-06T11:15:11.727Z,0.20
2023-03-06T11:18:24.278Z,0.77
2023-03-06T11:20:53.411Z,0.88
2023-03-06T11:23:37.271Z,2.78
2023-03-06T11:26:15.823Z,0.20
2023-03-06T11:29:19.632Z,0.85
2023-03-06T11:32:10.855Z,0.20
2023-03-06T11:34:44.137Z,0.20
2023-03-06T11:37:22.402Z,0.50
2023-03-06T11:39:59.424Z,1.10
2023-03-06T11:42:43.365Z,0.80
2023-03-06T11:45:33.503Z,2.13
2023-03-06T11:48:15.885Z,0.20
2023-03-06T11:50:49.262Z,0.40
2023-03-06T11:53:18.973Z,1.33
2023-03-06T11:56:03.989Z,1.85
2023-03-06T11:58:52.168Z,2.45
2023-03-06T12:01:36.975Z,1.25
2023-03-06T12:04:18.954Z,1.25
2023-03-06T12:07:03.253Z,0.40
2023-03-06T12:10:23.304Z,0.43
2023-03-06T12:13:02.112Z,0.75
2023-03-06T12:15:54.429Z,1.85
2023-03-06T12:18:45.311Z,3.90
2023-03-06T12:21:30.163Z,0.60
2023-03-06T12:24:23.219Z,0.70
2023-03-06T12:27:17.907Z,1.05
2023-03-06T12:30:43.038Z,0.65
2023-03-06T12:33:09.391Z,0.77
2023-03-06T12:36:12.438Z,1.50
2023-03-06T12:39:15.610Z,0.82
2023-03-06T12:41:56.613Z,2.55
2023-03-06T12:44:49.754Z,0.70
2023-03-06T12:47:20.007Z,1.65
2023-03-06T12:49:53.087Z,4.00
2023-03-06T12:52:40.442Z,2.83
2023-03-06T12:55:07.862Z,2.95
2023-03-06T12:57:34.302Z,0.80
2023-03-06T13:00:00.732Z,1.42
2023-03-06T13:02:45.369Z,4.63
2023-03-06T13:05:35.906Z,3.72
2023-03-06T13:08:23.564Z,1.85
2023-03-06T13:11:22.722Z,1.15
2023-03-06T13:13:49.390Z,6.47
2023-03-06T13:16:15.893Z,4.53
2023-03-06T13:18:42.268Z,1.27
2023-03-06T13:21:44.381Z,2.72
2023-03-06T13:24:35.591Z,1.50
2023-03-06T13:27:12.645Z,2.53
2023-03-06T13:29:38.933Z,2.93
2023-03-06T13:32:14.354Z,1.88
2023-03-06T13:34:41.910Z,4.18
2023-03-06T13:37:17.209Z,3.10
2023-03-06T13:39:55.820Z,3.30
2023-03-06T13:42:56.396Z,5.53
2023-03-06T13:45:29.850Z,2.90
2023-03-06T13:48:24.501Z,4.07
2023-03-06T13:50:47.433Z,4.50
2023-03-06T13:53:51.600Z,4.15
2023-03-06T13:56:33.830Z,4.63
2023-03-06T13:59:30.010Z,5.47
2023-03-06T14:02:28.909Z,4.80
2023-03-06T14:05:00.181Z,4.90
2023-03-06T14:07:40.389Z,5.45
2023-03-06T14:10:22.801Z,5.27
2023-03-06T14:12:49.146Z,5.85
2023-03-06T14:15:22.441Z,5.65
2023-03-06T14:18:07.601Z,7.20
2023-03-06T14:20:42.332Z,6.53
2023-03-06T14:23:20.917Z,8.70
2023-03-06T14:25:51.883Z,4.80
2023-03-06T14:28:26.287Z,5.45
2023-03-06T14:30:55.536Z,4.85
2023-03-06T14:33:31.140Z,4.30
2023-03-06T14:36:03.538Z,9.37
2023-03-06T14:38:35.474Z,4.32
2023-03-06T14:41:04.797Z,3.40
2023-03-06T14:43:32.269Z,3.38
2023-03-06T14:46:01.311Z,3.78
2023-03-06T14:48:42.517Z,4.37
2023-03-06T14:51:21.160Z,2.95
2023-03-06T14:53:53.729Z,4.35
2023-03-06T14:56:23.211Z,4.38
2023-03-06T14:58:52.586Z,3.92
2023-03-06T15:01:43.348Z,4.97
2023-03-06T15:04:31.752Z,3.08
2023-03-06T15:06:59.265Z,2.58
2023-03-06T15:09:30.118Z,3.83
2023-03-06T15:11:58.463Z,3.83
2023-03-06T15:14:33.623Z,2.90
2023-03-06T15:17:18.484Z,3.38
2023-03-06T15:19:47.115Z,7.22
2023-03-06T15:22:41.561Z,2.95
2023-03-06T15:25:30.491Z,2.33
2023-03-06T15:28:20.331Z,2.80
2023-03-06T15:31:01.554Z,3.20
2023-03-06T15:33:28.003Z,3.00
2023-03-06T15:36:27.501Z,2.63
2023-03-06T15:38:56.424Z,3.58
2023-03-06T15:41:37.326Z,2.77
2023-03-06T15:44:14.909Z,3.50
2023-03-06T15:46:41.768Z,3.92
2023-03-06T15:49:16.997Z,5.85
2023-03-06T15:51:43.479Z,4.32
2023-03-06T15:54:12.601Z,3.30
2023-03-06T15:56:41.653Z,7.93
2023-03-06T15:59:15.427Z,3.63
2023-03-06T16:01:43.279Z,5.22
2023-03-06T16:04:09.759Z,4.30
2023-03-06T16:06:39.218Z,4.97
2023-03-06T16:09:05.809Z,5.95
2023-03-06T16:11:43.225Z,6.63
2023-03-06T16:14:23.721Z,9.98
2023-03-06T16:16:53.849Z,6.60
2023-03-06T16:19:27.800Z,9.50
2023-03-06T16:21:56.261Z,9.05
2023-03-06T16:24:22.651Z,11.15
2023-03-06T16:26:51.121Z,9.93
2023-03-06T16:29:19.382Z,9.00
2023-03-06T16:31:45.907Z,10.47
2023-03-06T16:34:12.666Z,11.85
2023-03-06T16:36:39.326Z,10.82
2023-03-06T16:39:06.370Z,9.80
2023-03-06T16:41:32.711Z,11.07
2023-03-06T16:43:59.053Z,8.60
2023-03-06T16:46:25.576Z,15.02
2023-03-06T16:48:52.833Z,13.35
2023-03-06T16:51:22.591Z,11.80
2023-03-06T16:53:50.827Z,15.18
2023-03-06T16:56:19.380Z,13.87
2023-03-06T16:58:47.037Z,11.93
2023-03-06T17:01:19.132Z,13.73
2023-03-06T17:03:45.952Z,12.88
2023-03-06T17:06:23.107Z,12.40
2023-03-06T17:08:50.803Z,12.33
2023-03-06T17:11:17.928Z,13.35
2023-03-06T17:13:44.339Z,10.43
2023-03-06T17:16:16.248Z,11.80
2023-03-06T17:18:44.333Z,13.98
2023-03-06T17:21:11.732Z,12.90
2023-03-06T17:23:38.260Z,11.70
2023-03-06T17:26:08.349Z,10.63
2023-03-06T17:28:36.353Z,11.93
2023-03-06T17:31:10.334Z,14.65
2023-03-06T17:33:36.738Z,12.60
2023-03-06T17:36:03.446Z,10.25
2023-03-06T17:38:29.843Z,12.68
2023-03-06T17:40:56.466Z,12.05
2023-03-06T17:43:22.906Z,10.80
2023-03-06T17:45:49.301Z,12.90
2023-03-06T17:48:15.795Z,11.10
2023-03-06T17:50:42.197Z,12.52
2023-03-06T17:53:09.080Z,11.52
2023-03-06T17:55:38.249Z,13.00
2023-03-06T17:58:04.628Z,13.03
2023-03-06T18:00:31.011Z,11.70
2023-03-06T18:02:57.363Z,10.57
2023-03-06T18:05:23.731Z,14.52
2023-03-06T18:07:50.173Z,12.18
2023-03-06T18:10:16.925Z,15.27
2023-03-06T18:12:43.384Z,12.02
2023-03-06T18:15:10.144Z,13.82
2023-03-06T18:17:36.718Z,11.60
2023-03-06T18:20:03.298Z,13.60
2023-03-06T18:22:29.692Z,17.27
2023-03-06T18:24:56.260Z,15.85
2023-03-06T18:27:23.003Z,14.60
2023-03-06T18:29:49.504Z,14.30
2023-03-06T18:32:15.918Z,14.73
2023-03-06T18:34:42.425Z,17.40
2023-03-06T18:37:08.744Z,14.07
2023-03-06T18:39:35.176Z,12.88
2023-03-06T18:42:01.801Z,14.25
2023-03-06T18:44:28.204Z,19.02
2023-03-06T18:46:54.517Z,15.37
2023-03-06T18:49:21.013Z,17.73
2023-03-06T18:51:49.937Z,17.85
2023-03-06T18:54:16.591Z,17.92
2023-03-06T18:56:44.587Z,14.18
2023-03-06T18:59:16.107Z,17.07
2023-03-06T19:01:45.105Z,14.32
2023-03-06T19:04:12.264Z,18.17
2023-03-06T19:06:39.922Z,15.30
2023-03-06T19:09:06.717Z,14.38
2023-03-06T19:11:33.699Z,14.60
2023-03-06T19:14:00.976Z,18.85
2023-03-06T19:16:29.485Z,14.45
2023-03-06T19:18:57.252Z,17.15
2023-03-06T19:21:26.078Z,15.60
2023-03-06T19:23:53.221Z,17.40
2023-03-06T19:26:20.002Z,17.15
2023-03-06T19:28:47.645Z,17.35
2023-03-06T19:31:24.757Z,17.58
2023-03-06T19:33:53.089Z,20.52
2023-03-06T19:36:20.214Z,14.97
2023-03-06T19:38:52.471Z,17.38
2023-03-06T19:41:18.868Z,24.02
2023-03-06T19:43:50.939Z,18.73
2023-03-06T19:46:17.600Z,16.55
2023-03-06T19:48:43.973Z,20.47
2023-03-06T19:51:10.662Z,19.27
2023-03-06T19:53:38.678Z,20.15
2023-03-06T19:56:08.090Z,22.42
2023-03-06T19:58:34.797Z,21.33
2023-03-06T20:01:09.859Z,21.33
2023-03-06T20:03:36.489Z,23.17
2023-03-06T20:06:06.596Z,21.13
2023-03-06T20:08:33.124Z,20.42
2023-03-06T20:10:59.547Z,20.75
2023-03-06T20:13:25.990Z,19.13
2023-03-06T20:15:52.475Z,20.50
2023-03-06T20:18:18.982Z,15.25
2023-03-06T20:20:45.381Z,18.58
2023-03-06T20:23:11.816Z,21.08
2023-03-06T20:25:38.306Z,22.17
2023-03-06T20:28:05.204Z,20.92
2023-03-06T20:30:38.183Z,20.23
2023-03-06T20:33:05.288Z,18.45
2023-03-06T20:35:31.821Z,20.60
2023-03-06T20:37:58.975Z,17.47
2023-03-06T20:40:25.414Z,21.05
2023-03-06T20:42:51.881Z,19.42
2023-03-06T20:45:18.310Z,19.48
2023-03-06T20:47:47.153Z,20.20
2023-03-06T20:50:15.334Z,20.70
2023-03-06T20:52:41.937Z,20.83
2023-03-06T20:55:08.815Z,18.85
2023-03-06T20:57:35.227Z,17.90
2023-03-06T21:00:01.609Z,16.00
2023-03-06T21:02:27.958Z,17.27
2023-03-06T21:04:54.382Z,16.17
2023-03-06T21:07:20.747Z,21.35
2023-03-06T21:09:47.648Z,18.92
2023-03-06T21:12:14.016Z,17.02
2023-03-06T21:14:40.435Z,15.00
2023-03-06T21:17:06.795Z,19.13
2023-03-06T21:19:33.146Z,21.05
2023-03-06T21:21:59.484Z,16.00
2023-03-06T21:24:25.904Z,17.75
2023-03-06T21:26:52.304Z,15.17
2023-03-06T21:29:18.682Z,15.48
2023-03-06T21:31:45.235Z,17.38
2023-03-06T21:34:11.965Z,16.38
2023-03-06T21:36:38.393Z,16.50
2023-03-06T21:39:08.120Z,16.37
2023-03-06T21:41:34.654Z,13.07
2023-03-06T21:44:03.439Z,13.55
2023-03-06T21:46:30.278Z,15.10
2023-03-06T21:48:57.335Z,15.82
2023-03-06T21:51:25.771Z,16.73
2023-03-06T21:53:53.010Z,14.73
2023-03-06T21:56:22.132Z,13.10
2023-03-06T21:58:48.641Z,12.70
2023-03-06T22:01:23.883Z,13.85
2023-03-06T22:03:50.498Z,11.20
2023-03-06T22:06:23.156Z,11.27
2023-03-06T22:08:49.951Z,7.78
2023-03-06T22:11:19.103Z,7.65
2023-03-06T22:13:46.632Z,9.00
2023-03-06T22:16:13.464Z,9.17
2023-03-06T22:18:40.335Z,6.80
2023-03-06T22:21:08.343Z,7.18
2023-03-06T22:23:34.817Z,8.18
2023-03-06T22:26:06.482Z,6.22
2023-03-06T22:28:32.996Z,5.87
2023-03-06T22:31:12.298Z,5.82
2023-03-06T22:33:38.957Z,5.55
2023-03-06T22:36:08.524Z,5.18
2023-03-06T22:38:36.796Z,6.50
2023-03-06T22:41:04.289Z,5.03
2023-03-06T22:43:31.246Z,4.78
2023-03-06T22:46:10.400Z,4.72
2023-03-06T22:48:37.128Z,4.45
2023-03-06T22:51:09.382Z,4.30
2023-03-06T22:53:36.480Z,4.00
2023-03-06T22:56:04.872Z,5.00
2023-03-06T22:58:35.476Z,4.65
2023-03-06T23:01:10.608Z,4.05
2023-03-06T23:03:38.690Z,5.57
2023-03-06T23:06:07.878Z,4.07
2023-03-06T23:08:34.432Z,4.43
2023-03-06T23:11:01.155Z,4.40
2023-03-06T23:13:27.563Z,5.50
2023-03-06T23:15:53.973Z,4.88
2023-03-06T23:18:20.391Z,3.13
2023-03-06T23:20:46.849Z,4.20
2023-03-06T23:23:13.310Z,3.22
2023-03-06T23:25:39.762Z,3.47
2023-03-06T23:28:06.486Z,5.18
2023-03-06T23:30:33.034Z,4.57
2023-03-06T23:32:59.373Z,2.47
2023-03-06T23:35:25.990Z,2.53
2023-03-06T23:37:52.392Z,3.65
2023-03-06T23:40:18.814Z,4.65
2023-03-06T23:42:45.190Z,4.43
2023-03-06T23:45:11.750Z,3.67
2023-03-06T23:47:38.149Z,4.38
2023-03-06T23:50:04.792Z,3.95
2023-03-06T23:52:31.187Z,5.15
2023-03-06T23:54:57.577Z,7.70
2023-03-06T23:57:23.984Z,4.90
2023-03-06T23:59:50.307Z,4.72
